sensor_id;sensor_type;location;lat;lon;timestamp;P1;durP1;ratioP1;P2;durP2;ratioP2
64932;SDS011;51446;53.850;10.662;2023-12-20T00:00:14;11.03;;;3.67;;
64932;SDS011;51446;53.850;10.662;2023-12-20T00:02:40;13.73;;;3.57;;
64932;SDS011;51446;53.850;10.662;2023-12-20T00:05:05;12.30;;;3.65;;
64932;SDS011;51446;53.850;10.662;2023-12-20T00:07:31;8.43;;;4.00;;
64932;SDS011;51446;53.850;10.662;2023-12-20T00:09:56;20.20;;;4.13;;
64932;SDS011;51446;53.850;10.662;2023-12-20T00:12:21;17.40;;;3.87;;
64932;SDS011;51446;53.850;10.662;2023-12-20T00:14:47;14.27;;;3.77;;
64932;SDS011;51446;53.850;10.662;2023-12-20T00:17:12;13.17;;;3.67;;
64932;SDS011;51446;53.850;10.662;2023-12-20T00:19:37;18.33;;;3.90;;
64932;SDS011;51446;53.850;10.662;2023-12-20T00:22:02;14.50;;;3.37;;
64932;SDS011;51446;53.850;10.662;2023-12-20T00:24:28;17.10;;;3.72;;
64932;SDS011;51446;53.850;10.662;2023-12-20T00:26:53;14.57;;;3.57;;
64932;SDS011;51446;53.850;10.662;2023-12-20T00:29:18;14.60;;;3.63;;
64932;SDS011;51446;53.850;10.662;2023-12-20T00:31:43;18.07;;;3.73;;
64932;SDS011;51446;53.850;10.662;2023-12-20T00:34:09;14.00;;;3.50;;
64932;SDS011;51446;53.850;10.662;2023-12-20T00:36:34;11.47;;;3.27;;
64932;SDS011;51446;53.850;10.662;2023-12-20T00:38:59;10.90;;;3.10;;
64932;SDS011;51446;53.850;10.662;2023-12-20T00:41:25;14.53;;;3.40;;
64932;SDS011;51446;53.850;10.662;2023-12-20T00:43:50;14.23;;;2.97;;
64932;SDS011;51446;53.850;10.662;2023-12-20T00:46:15;20.50;;;3.20;;
64932;SDS011;51446;53.850;10.662;2023-12-20T00:48:41;18.47;;;3.07;;
64932;SDS011;51446;53.850;10.662;2023-12-20T00:51:07;11.07;;;2.83;;
64932;SDS011;51446;53.850;10.662;2023-12-20T00:53:32;18.35;;;2.83;;
64932;SDS011;51446;53.850;10.662;2023-12-20T00:55:58;11.02;;;3.65;;
64932;SDS011;51446;53.850;10.662;2023-12-20T00:58:23;13.68;;;3.15;;
64932;SDS011;51446;53.850;10.662;2023-12-20T01:00:49;16.47;;;3.80;;
64932;SDS011;51446;53.850;10.662;2023-12-20T01:03:14;19.30;;;2.93;;
64932;SDS011;51446;53.850;10.662;2023-12-20T01:05:40;15.70;;;2.70;;
64932;SDS011;51446;53.850;10.662;2023-12-20T01:08:05;22.13;;;4.60;;
64932;SDS011;51446;53.850;10.662;2023-12-20T01:10:31;19.67;;;3.30;;
64932;SDS011;51446;53.850;10.662;2023-12-20T01:12:56;18.95;;;3.30;;
64932;SDS011;51446;53.850;10.662;2023-12-20T01:15:22;13.57;;;2.80;;
64932;SDS011;51446;53.850;10.662;2023-12-20T01:17:48;14.60;;;3.60;;
64932;SDS011;51446;53.850;10.662;2023-12-20T01:20:14;12.55;;;3.00;;
64932;SDS011;51446;53.850;10.662;2023-12-20T01:22:39;18.77;;;3.25;;
64932;SDS011;51446;53.850;10.662;2023-12-20T01:25:05;18.07;;;3.60;;
64932;SDS011;51446;53.850;10.662;2023-12-20T01:27:30;18.27;;;3.83;;
64932;SDS011;51446;53.850;10.662;2023-12-20T01:29:56;18.07;;;4.00;;
64932;SDS011;51446;53.850;10.662;2023-12-20T01:32:21;17.30;;;2.75;;
64932;SDS011;51446;53.850;10.662;2023-12-20T01:34:47;11.63;;;3.00;;
64932;SDS011;51446;53.850;10.662;2023-12-20T01:37:13;10.77;;;2.72;;
64932;SDS011;51446;53.850;10.662;2023-12-20T01:39:38;19.50;;;3.77;;
64932;SDS011;51446;53.850;10.662;2023-12-20T01:42:04;17.13;;;3.23;;
64932;SDS011;51446;53.850;10.662;2023-12-20T01:44:29;19.47;;;3.23;;
64932;SDS011;51446;53.850;10.662;2023-12-20T01:46:54;15.57;;;3.70;;
64932;SDS011;51446;53.850;10.662;2023-12-20T01:49:20;14.03;;;3.53;;
64932;SDS011;51446;53.850;10.662;2023-12-20T01:51:46;16.33;;;2.72;;
64932;SDS011;51446;53.850;10.662;2023-12-20T01:54:12;17.30;;;3.03;;
64932;SDS011;51446;53.850;10.662;2023-12-20T01:56:38;15.57;;;2.87;;
64932;SDS011;51446;53.850;10.662;2023-12-20T01:59:04;16.65;;;3.30;;
64932;SDS011;51446;53.850;10.662;2023-12-20T02:01:32;11.57;;;2.65;;
64932;SDS011;51446;53.850;10.662;2023-12-20T02:03:58;10.53;;;2.67;;
64932;SDS011;51446;53.850;10.662;2023-12-20T02:06:24;12.73;;;2.83;;
64932;SDS011;51446;53.850;10.662;2023-12-20T02:08:54;12.40;;;2.40;;
64932;SDS011;51446;53.850;10.662;2023-12-20T02:11:19;16.95;;;2.25;;
64932;SDS011;51446;53.850;10.662;2023-12-20T02:13:45;10.63;;;2.60;;
64932;SDS011;51446;53.850;10.662;2023-12-20T02:16:10;11.73;;;2.73;;
64932;SDS011;51446;53.850;10.662;2023-12-20T02:18:36;18.80;;;3.07;;
64932;SDS011;51446;53.850;10.662;2023-12-20T02:21:01;9.67;;;2.80;;
64932;SDS011;51446;53.850;10.662;2023-12-20T02:23:28;15.90;;;3.25;;
64932;SDS011;51446;53.850;10.662;2023-12-20T02:25:53;12.03;;;3.07;;
64932;SDS011;51446;53.850;10.662;2023-12-20T02:28:19;19.97;;;3.03;;
64932;SDS011;51446;53.850;10.662;2023-12-20T02:30:44;15.30;;;3.20;;
64932;SDS011;51446;53.850;10.662;2023-12-20T02:33:10;10.43;;;2.93;;
64932;SDS011;51446;53.850;10.662;2023-12-20T02:35:37;15.65;;;2.95;;
64932;SDS011;51446;53.850;10.662;2023-12-20T02:38:02;16.67;;;3.30;;
64932;SDS011;51446;53.850;10.662;2023-12-20T02:40:28;12.67;;;2.77;;
64932;SDS011;51446;53.850;10.662;2023-12-20T02:42:53;8.30;;;2.60;;
64932;SDS011;51446;53.850;10.662;2023-12-20T02:45:18;12.80;;;3.00;;
64932;SDS011;51446;53.850;10.662;2023-12-20T02:47:43;14.00;;;3.27;;
64932;SDS011;51446;53.850;10.662;2023-12-20T02:50:09;11.83;;;2.93;;
64932;SDS011;51446;53.850;10.662;2023-12-20T02:52:34;18.17;;;3.13;;
64932;SDS011;51446;53.850;10.662;2023-12-20T02:54:59;14.93;;;2.53;;
64932;SDS011;51446;53.850;10.662;2023-12-20T02:57:24;19.40;;;3.47;;
64932;SDS011;51446;53.850;10.662;2023-12-20T02:59:50;9.10;;;2.40;;
64932;SDS011;51446;53.850;10.662;2023-12-20T03:02:15;12.33;;;2.70;;
64932;SDS011;51446;53.850;10.662;2023-12-20T03:04:40;16.03;;;2.90;;
64932;SDS011;51446;53.850;10.662;2023-12-20T03:07:05;11.07;;;2.93;;
64932;SDS011;51446;53.850;10.662;2023-12-20T03:09:30;13.27;;;3.17;;
64932;SDS011;51446;53.850;10.662;2023-12-20T03:11:56;13.33;;;3.17;;
64932;SDS011;51446;53.850;10.662;2023-12-20T03:14:21;13.13;;;2.93;;
64932;SDS011;51446;53.850;10.662;2023-12-20T03:16:47;8.97;;;3.00;;
64932;SDS011;51446;53.850;10.662;2023-12-20T03:19:14;12.50;;;2.83;;
64932;SDS011;51446;53.850;10.662;2023-12-20T03:21:40;11.25;;;2.97;;
64932;SDS011;51446;53.850;10.662;2023-12-20T03:24:05;14.57;;;3.10;;
64932;SDS011;51446;53.850;10.662;2023-12-20T03:26:30;14.03;;;3.50;;
64932;SDS011;51446;53.850;10.662;2023-12-20T03:28:56;13.13;;;2.60;;
64932;SDS011;51446;53.850;10.662;2023-12-20T03:31:21;16.97;;;3.53;;
64932;SDS011;51446;53.850;10.662;2023-12-20T03:33:46;16.08;;;3.20;;
64932;SDS011;51446;53.850;10.662;2023-12-20T03:36:12;9.57;;;2.67;;
64932;SDS011;51446;53.850;10.662;2023-12-20T03:38:37;9.90;;;2.53;;
64932;SDS011;51446;53.850;10.662;2023-12-20T03:41:02;12.90;;;2.87;;
64932;SDS011;51446;53.850;10.662;2023-12-20T03:43:28;6.03;;;2.67;;
64932;SDS011;51446;53.850;10.662;2023-12-20T03:45:53;12.93;;;2.87;;
64932;SDS011;51446;53.850;10.662;2023-12-20T03:48:18;9.37;;;2.63;;
64932;SDS011;51446;53.850;10.662;2023-12-20T03:50:43;8.53;;;3.03;;
64932;SDS011;51446;53.850;10.662;2023-12-20T03:53:08;9.43;;;2.67;;
64932;SDS011;51446;53.850;10.662;2023-12-20T03:55:34;14.53;;;2.80;;
64932;SDS011;51446;53.850;10.662;2023-12-20T03:57:59;9.70;;;2.37;;
64932;SDS011;51446;53.850;10.662;2023-12-20T04:00:24;14.43;;;2.60;;
64932;SDS011;51446;53.850;10.662;2023-12-20T04:02:49;6.80;;;2.50;;
64932;SDS011;51446;53.850;10.662;2023-12-20T04:05:15;7.40;;;2.30;;
64932;SDS011;51446;53.850;10.662;2023-12-20T04:07:40;6.83;;;2.50;;
64932;SDS011;51446;53.850;10.662;2023-12-20T04:10:06;14.40;;;3.10;;
64932;SDS011;51446;53.850;10.662;2023-12-20T04:12:32;17.33;;;3.33;;
64932;SDS011;51446;53.850;10.662;2023-12-20T04:14:57;15.77;;;3.10;;
64932;SDS011;51446;53.850;10.662;2023-12-20T04:17:23;7.80;;;2.80;;
64932;SDS011;51446;53.850;10.662;2023-12-20T04:19:49;17.38;;;3.55;;
64932;SDS011;51446;53.850;10.662;2023-12-20T04:22:14;7.77;;;2.50;;
64932;SDS011;51446;53.850;10.662;2023-12-20T04:24:40;7.93;;;2.60;;
64932;SDS011;51446;53.850;10.662;2023-12-20T04:27:07;8.77;;;2.40;;
64932;SDS011;51446;53.850;10.662;2023-12-20T04:29:33;13.33;;;2.77;;
64932;SDS011;51446;53.850;10.662;2023-12-20T04:31:58;13.10;;;2.60;;
64932;SDS011;51446;53.850;10.662;2023-12-20T04:34:23;14.07;;;2.90;;
64932;SDS011;51446;53.850;10.662;2023-12-20T04:36:48;11.87;;;2.70;;
64932;SDS011;51446;53.850;10.662;2023-12-20T04:39:14;11.50;;;2.23;;
64932;SDS011;51446;53.850;10.662;2023-12-20T04:41:42;11.32;;;2.58;;
64932;SDS011;51446;53.850;10.662;2023-12-20T04:44:07;14.07;;;2.93;;
64932;SDS011;51446;53.850;10.662;2023-12-20T04:46:32;10.80;;;2.47;;
64932;SDS011;51446;53.850;10.662;2023-12-20T04:48:57;13.27;;;2.87;;
64932;SDS011;51446;53.850;10.662;2023-12-20T04:51:23;14.13;;;2.90;;
64932;SDS011;51446;53.850;10.662;2023-12-20T04:53:48;14.45;;;2.63;;
64932;SDS011;51446;53.850;10.662;2023-12-20T04:56:13;15.27;;;2.93;;
64932;SDS011;51446;53.850;10.662;2023-12-20T04:58:39;15.80;;;2.97;;
64932;SDS011;51446;53.850;10.662;2023-12-20T05:01:05;17.00;;;3.13;;
64932;SDS011;51446;53.850;10.662;2023-12-20T05:03:31;9.57;;;2.50;;
64932;SDS011;51446;53.850;10.662;2023-12-20T05:05:56;8.27;;;2.50;;
64932;SDS011;51446;53.850;10.662;2023-12-20T05:08:21;11.10;;;2.33;;
64932;SDS011;51446;53.850;10.662;2023-12-20T05:10:46;13.23;;;2.70;;
64932;SDS011;51446;53.850;10.662;2023-12-20T05:13:12;14.48;;;3.55;;
64932;SDS011;51446;53.850;10.662;2023-12-20T05:15:37;13.23;;;2.67;;
64932;SDS011;51446;53.850;10.662;2023-12-20T05:18:03;10.90;;;2.70;;
64932;SDS011;51446;53.850;10.662;2023-12-20T05:20:29;8.45;;;2.40;;
64932;SDS011;51446;53.850;10.662;2023-12-20T05:22:54;11.33;;;3.40;;
64932;SDS011;51446;53.850;10.662;2023-12-20T05:25:19;12.43;;;3.10;;
64932;SDS011;51446;53.850;10.662;2023-12-20T05:27:44;11.53;;;3.00;;
64932;SDS011;51446;53.850;10.662;2023-12-20T05:30:10;16.10;;;2.93;;
64932;SDS011;51446;53.850;10.662;2023-12-20T05:32:36;13.35;;;3.25;;
64932;SDS011;51446;53.850;10.662;2023-12-20T05:35:01;18.70;;;3.50;;
64932;SDS011;51446;53.850;10.662;2023-12-20T05:37:26;12.70;;;2.77;;
64932;SDS011;51446;53.850;10.662;2023-12-20T05:39:51;12.47;;;2.80;;
64932;SDS011;51446;53.850;10.662;2023-12-20T05:42:16;8.47;;;2.60;;
64932;SDS011;51446;53.850;10.662;2023-12-20T05:44:42;8.47;;;2.77;;
64932;SDS011;51446;53.850;10.662;2023-12-20T05:47:07;14.47;;;3.03;;
64932;SDS011;51446;53.850;10.662;2023-12-20T05:49:32;12.23;;;2.90;;
64932;SDS011;51446;53.850;10.662;2023-12-20T05:51:57;9.60;;;2.63;;
64932;SDS011;51446;53.850;10.662;2023-12-20T05:54:23;15.77;;;3.00;;
64932;SDS011;51446;53.850;10.662;2023-12-20T05:56:48;13.73;;;3.67;;
64932;SDS011;51446;53.850;10.662;2023-12-20T05:59:13;11.87;;;2.97;;
64932;SDS011;51446;53.850;10.662;2023-12-20T06:01:39;5.67;;;2.80;;
64932;SDS011;51446;53.850;10.662;2023-12-20T06:04:04;12.53;;;2.83;;
64932;SDS011;51446;53.850;10.662;2023-12-20T06:06:29;14.00;;;2.93;;
64932;SDS011;51446;53.850;10.662;2023-12-20T06:08:55;10.40;;;2.90;;
64932;SDS011;51446;53.850;10.662;2023-12-20T06:11:20;12.30;;;2.93;;
64932;SDS011;51446;53.850;10.662;2023-12-20T06:13:46;9.60;;;2.33;;
64932;SDS011;51446;53.850;10.662;2023-12-20T06:16:11;7.37;;;2.50;;
64932;SDS011;51446;53.850;10.662;2023-12-20T06:18:36;9.30;;;2.70;;
64932;SDS011;51446;53.850;10.662;2023-12-20T06:21:02;8.30;;;2.40;;
64932;SDS011;51446;53.850;10.662;2023-12-20T06:23:27;8.95;;;2.75;;
64932;SDS011;51446;53.850;10.662;2023-12-20T06:25:53;9.37;;;2.70;;
64932;SDS011;51446;53.850;10.662;2023-12-20T06:28:18;8.23;;;2.93;;
64932;SDS011;51446;53.850;10.662;2023-12-20T06:30:43;9.47;;;2.90;;
64932;SDS011;51446;53.850;10.662;2023-12-20T06:33:08;11.67;;;2.40;;
64932;SDS011;51446;53.850;10.662;2023-12-20T06:35:36;11.68;;;2.78;;
64932;SDS011;51446;53.850;10.662;2023-12-20T06:38:01;6.77;;;2.47;;
64932;SDS011;51446;53.850;10.662;2023-12-20T06:40:26;7.17;;;2.60;;
64932;SDS011;51446;53.850;10.662;2023-12-20T06:42:52;8.53;;;2.30;;
64932;SDS011;51446;53.850;10.662;2023-12-20T06:45:17;8.30;;;2.60;;
64932;SDS011;51446;53.850;10.662;2023-12-20T06:47:42;9.87;;;2.70;;
64932;SDS011;51446;53.850;10.662;2023-12-20T06:50:07;7.87;;;2.60;;
64932;SDS011;51446;53.850;10.662;2023-12-20T06:52:33;6.93;;;2.67;;
64932;SDS011;51446;53.850;10.662;2023-12-20T06:54:58;8.52;;;2.45;;
64932;SDS011;51446;53.850;10.662;2023-12-20T06:57:23;9.10;;;2.65;;
64932;SDS011;51446;53.850;10.662;2023-12-20T06:59:51;9.90;;;2.80;;
64932;SDS011;51446;53.850;10.662;2023-12-20T07:02:17;18.75;;;3.40;;
64932;SDS011;51446;53.850;10.662;2023-12-20T07:04:42;10.70;;;3.10;;
64932;SDS011;51446;53.850;10.662;2023-12-20T07:07:07;8.07;;;2.43;;
64932;SDS011;51446;53.850;10.662;2023-12-20T07:09:33;16.53;;;3.03;;
64932;SDS011;51446;53.850;10.662;2023-12-20T07:11:58;11.55;;;2.75;;
64932;SDS011;51446;53.850;10.662;2023-12-20T07:14:24;10.77;;;2.43;;
64932;SDS011;51446;53.850;10.662;2023-12-20T07:16:49;10.70;;;2.33;;
64932;SDS011;51446;53.850;10.662;2023-12-20T07:19:14;13.83;;;3.30;;
64932;SDS011;51446;53.850;10.662;2023-12-20T07:21:39;16.23;;;3.77;;
64932;SDS011;51446;53.850;10.662;2023-12-20T07:24:05;10.67;;;3.03;;
64932;SDS011;51446;53.850;10.662;2023-12-20T07:26:30;12.00;;;2.73;;
64932;SDS011;51446;53.850;10.662;2023-12-20T07:28:55;10.93;;;2.73;;
64932;SDS011;51446;53.850;10.662;2023-12-20T07:31:20;16.07;;;3.20;;
64932;SDS011;51446;53.850;10.662;2023-12-20T07:33:46;12.80;;;3.10;;
64932;SDS011;51446;53.850;10.662;2023-12-20T07:36:11;8.90;;;3.00;;
64932;SDS011;51446;53.850;10.662;2023-12-20T07:38:37;13.95;;;3.28;;
64932;SDS011;51446;53.850;10.662;2023-12-20T07:41:02;17.00;;;3.50;;
64932;SDS011;51446;53.850;10.662;2023-12-20T07:43:28;21.60;;;3.53;;
64932;SDS011;51446;53.850;10.662;2023-12-20T07:45:53;17.10;;;3.70;;
64932;SDS011;51446;53.850;10.662;2023-12-20T07:48:18;13.57;;;3.20;;
64932;SDS011;51446;53.850;10.662;2023-12-20T07:50:44;18.73;;;3.90;;
64932;SDS011;51446;53.850;10.662;2023-12-20T07:53:09;14.47;;;2.90;;
64932;SDS011;51446;53.850;10.662;2023-12-20T07:55:34;16.50;;;3.07;;
64932;SDS011;51446;53.850;10.662;2023-12-20T07:57:59;13.23;;;2.90;;
64932;SDS011;51446;53.850;10.662;2023-12-20T08:00:25;17.60;;;3.17;;
64932;SDS011;51446;53.850;10.662;2023-12-20T08:02:50;18.13;;;2.90;;
64932;SDS011;51446;53.850;10.662;2023-12-20T08:05:16;17.23;;;2.93;;
64932;SDS011;51446;53.850;10.662;2023-12-20T08:07:41;15.23;;;3.27;;
64932;SDS011;51446;53.850;10.662;2023-12-20T08:10:06;10.87;;;2.80;;
64932;SDS011;51446;53.850;10.662;2023-12-20T08:12:32;15.57;;;3.67;;
64932;SDS011;51446;53.850;10.662;2023-12-20T08:14:58;15.68;;;3.63;;
64932;SDS011;51446;53.850;10.662;2023-12-20T08:17:23;9.97;;;2.83;;
64932;SDS011;51446;53.850;10.662;2023-12-20T08:19:49;14.97;;;3.73;;
64932;SDS011;51446;53.850;10.662;2023-12-20T08:22:14;10.70;;;3.20;;
64932;SDS011;51446;53.850;10.662;2023-12-20T08:24:39;16.23;;;3.07;;
64932;SDS011;51446;53.850;10.662;2023-12-20T08:27:04;15.83;;;3.10;;
64932;SDS011;51446;53.850;10.662;2023-12-20T08:29:30;13.43;;;3.37;;
64932;SDS011;51446;53.850;10.662;2023-12-20T08:31:55;14.47;;;3.63;;
64932;SDS011;51446;53.850;10.662;2023-12-20T08:34:21;11.35;;;3.75;;
64932;SDS011;51446;53.850;10.662;2023-12-20T08:36:46;16.90;;;3.65;;
64932;SDS011;51446;53.850;10.662;2023-12-20T08:39:11;11.37;;;3.10;;
64932;SDS011;51446;53.850;10.662;2023-12-20T08:41:36;16.30;;;4.00;;
64932;SDS011;51446;53.850;10.662;2023-12-20T08:44:02;17.23;;;3.67;;
64932;SDS011;51446;53.850;10.662;2023-12-20T08:46:27;15.73;;;4.00;;
64932;SDS011;51446;53.850;10.662;2023-12-20T08:48:52;18.17;;;3.10;;
64932;SDS011;51446;53.850;10.662;2023-12-20T08:51:18;11.03;;;2.67;;
64932;SDS011;51446;53.850;10.662;2023-12-20T08:53:44;16.77;;;3.25;;
64932;SDS011;51446;53.850;10.662;2023-12-20T08:56:10;15.77;;;3.43;;
64932;SDS011;51446;53.850;10.662;2023-12-20T08:58:35;16.02;;;2.90;;
64932;SDS011;51446;53.850;10.662;2023-12-20T09:01:01;25.43;;;4.47;;
64932;SDS011;51446;53.850;10.662;2023-12-20T09:03:26;21.10;;;3.50;;
64932;SDS011;51446;53.850;10.662;2023-12-20T09:05:51;13.53;;;3.50;;
64932;SDS011;51446;53.850;10.662;2023-12-20T09:08:16;16.27;;;3.53;;
64932;SDS011;51446;53.850;10.662;2023-12-20T09:10:42;13.23;;;3.03;;
64932;SDS011;51446;53.850;10.662;2023-12-20T09:13:07;9.73;;;3.00;;
64932;SDS011;51446;53.850;10.662;2023-12-20T09:15:32;15.37;;;3.10;;
64932;SDS011;51446;53.850;10.662;2023-12-20T09:17:59;18.23;;;3.35;;
64932;SDS011;51446;53.850;10.662;2023-12-20T09:20:24;13.07;;;3.40;;
64932;SDS011;51446;53.850;10.662;2023-12-20T09:22:49;14.37;;;3.17;;
64932;SDS011;51446;53.850;10.662;2023-12-20T09:25:15;8.23;;;2.93;;
64932;SDS011;51446;53.850;10.662;2023-12-20T09:27:42;10.25;;;2.83;;
64932;SDS011;51446;53.850;10.662;2023-12-20T09:30:07;9.73;;;2.70;;
64932;SDS011;51446;53.850;10.662;2023-12-20T09:32:33;9.00;;;2.80;;
64932;SDS011;51446;53.850;10.662;2023-12-20T09:34:58;7.80;;;2.33;;
64932;SDS011;51446;53.850;10.662;2023-12-20T09:37:27;12.80;;;2.67;;
64932;SDS011;51446;53.850;10.662;2023-12-20T09:39:54;6.97;;;2.50;;
64932;SDS011;51446;53.850;10.662;2023-12-20T09:42:24;8.33;;;2.37;;
64932;SDS011;51446;53.850;10.662;2023-12-20T09:44:54;7.55;;;2.30;;
64932;SDS011;51446;53.850;10.662;2023-12-20T09:47:20;11.80;;;2.00;;
64932;SDS011;51446;53.850;10.662;2023-12-20T09:49:49;4.70;;;2.10;;
64932;SDS011;51446;53.850;10.662;2023-12-20T09:52:15;4.57;;;2.13;;
64932;SDS011;51446;53.850;10.662;2023-12-20T09:54:42;4.15;;;1.80;;
64932;SDS011;51446;53.850;10.662;2023-12-20T09:57:09;3.00;;;1.97;;
64932;SDS011;51446;53.850;10.662;2023-12-20T09:59:35;6.72;;;1.70;;
64932;SDS011;51446;53.850;10.662;2023-12-20T10:02:00;3.77;;;1.70;;
64932;SDS011;51446;53.850;10.662;2023-12-20T10:04:26;2.80;;;1.70;;
64932;SDS011;51446;53.850;10.662;2023-12-20T10:06:53;2.65;;;1.85;;
64932;SDS011;51446;53.850;10.662;2023-12-20T10:09:18;3.13;;;1.57;;
64932;SDS011;51446;53.850;10.662;2023-12-20T10:11:43;3.53;;;1.50;;
64932;SDS011;51446;53.850;10.662;2023-12-20T10:14:10;2.93;;;1.80;;
64932;SDS011;51446;53.850;10.662;2023-12-20T10:16:35;1.70;;;1.60;;
64932;SDS011;51446;53.850;10.662;2023-12-20T10:19:01;2.10;;;1.67;;
64932;SDS011;51446;53.850;10.662;2023-12-20T10:21:26;3.63;;;1.50;;
64932;SDS011;51446;53.850;10.662;2023-12-20T10:23:53;3.07;;;1.53;;
64932;SDS011;51446;53.850;10.662;2023-12-20T10:26:20;2.15;;;1.63;;
64932;SDS011;51446;53.850;10.662;2023-12-20T10:28:55;3.10;;;1.73;;
64932;SDS011;51446;53.850;10.662;2023-12-20T10:31:28;2.45;;;1.67;;
64932;SDS011;51446;53.850;10.662;2023-12-20T10:33:58;4.53;;;1.70;;
64932;SDS011;51446;53.850;10.662;2023-12-20T10:36:25;1.83;;;1.60;;
64932;SDS011;51446;53.850;10.662;2023-12-20T10:38:52;6.25;;;1.70;;
64932;SDS011;51446;53.850;10.662;2023-12-20T10:41:18;4.28;;;1.70;;
64932;SDS011;51446;53.850;10.662;2023-12-20T10:43:51;7.47;;;1.50;;
64932;SDS011;51446;53.850;10.662;2023-12-20T10:46:17;4.57;;;1.80;;
64932;SDS011;51446;53.850;10.662;2023-12-20T10:48:44;4.00;;;1.90;;
64932;SDS011;51446;53.850;10.662;2023-12-20T10:51:11;6.85;;;2.25;;
64932;SDS011;51446;53.850;10.662;2023-12-20T10:53:39;6.50;;;1.50;;
64932;SDS011;51446;53.850;10.662;2023-12-20T10:56:05;4.88;;;1.80;;
64932;SDS011;51446;53.850;10.662;2023-12-20T10:58:33;9.53;;;2.40;;
64932;SDS011;51446;53.850;10.662;2023-12-20T11:01:04;6.25;;;2.10;;
64932;SDS011;51446;53.850;10.662;2023-12-20T11:03:32;9.25;;;2.25;;
64932;SDS011;51446;53.850;10.662;2023-12-20T11:06:45;5.40;;;2.08;;
64932;SDS011;51446;53.850;10.662;2023-12-20T11:09:04;13.15;;;2.58;;
64932;SDS011;51446;53.850;10.662;2023-12-20T11:14:49;6.53;;;2.25;;
64932;SDS011;51446;53.850;10.662;2023-12-20T11:17:16;10.33;;;2.30;;
64932;SDS011;51446;53.850;10.662;2023-12-20T11:20:04;10.05;;;2.42;;
64932;SDS011;51446;53.850;10.662;2023-12-20T11:22:30;7.32;;;2.28;;
64932;SDS011;51446;53.850;10.662;2023-12-20T11:25:09;5.97;;;2.13;;
64932;SDS011;51446;53.850;10.662;2023-12-20T11:27:40;5.57;;;2.00;;
64932;SDS011;51446;53.850;10.662;2023-12-20T11:30:48;6.97;;;2.10;;
64932;SDS011;51446;53.850;10.662;2023-12-20T11:33:23;3.22;;;2.00;;
64932;SDS011;51446;53.850;10.662;2023-12-20T11:36:12;2.95;;;1.70;;
64932;SDS011;51446;53.850;10.662;2023-12-20T11:38:56;5.18;;;1.60;;
64932;SDS011;51446;53.850;10.662;2023-12-20T11:42:04;2.97;;;1.40;;
64932;SDS011;51446;53.850;10.662;2023-12-20T11:44:32;5.60;;;1.70;;
64932;SDS011;51446;53.850;10.662;2023-12-20T11:46:58;6.00;;;1.70;;
64932;SDS011;51446;53.850;10.662;2023-12-20T11:49:24;4.60;;;2.08;;
64932;SDS011;51446;53.850;10.662;2023-12-20T11:51:50;3.73;;;1.80;;
64932;SDS011;51446;53.850;10.662;2023-12-20T11:54:15;11.52;;;2.20;;
64932;SDS011;51446;53.850;10.662;2023-12-20T11:56:41;7.77;;;1.97;;
64932;SDS011;51446;53.850;10.662;2023-12-20T11:59:07;9.15;;;2.25;;
64932;SDS011;51446;53.850;10.662;2023-12-20T12:01:33;7.87;;;2.17;;
64932;SDS011;51446;53.850;10.662;2023-12-20T12:04:02;4.53;;;1.90;;
64932;SDS011;51446;53.850;10.662;2023-12-20T12:06:31;11.23;;;1.90;;
64932;SDS011;51446;53.850;10.662;2023-12-20T12:08:57;11.38;;;2.50;;
64932;SDS011;51446;53.850;10.662;2023-12-20T12:11:22;8.07;;;1.93;;
64932;SDS011;51446;53.850;10.662;2023-12-20T12:13:48;5.33;;;1.80;;
64932;SDS011;51446;53.850;10.662;2023-12-20T12:16:20;5.40;;;1.88;;
64932;SDS011;51446;53.850;10.662;2023-12-20T12:18:45;6.13;;;1.80;;
64932;SDS011;51446;53.850;10.662;2023-12-20T12:21:18;6.13;;;2.20;;
64932;SDS011;51446;53.850;10.662;2023-12-20T12:23:44;7.40;;;2.40;;
64932;SDS011;51446;53.850;10.662;2023-12-20T12:26:09;13.27;;;3.07;;
64932;SDS011;51446;53.850;10.662;2023-12-20T12:28:34;6.47;;;2.03;;
64932;SDS011;51446;53.850;10.662;2023-12-20T12:31:00;13.37;;;2.20;;
64932;SDS011;51446;53.850;10.662;2023-12-20T12:33:25;11.80;;;2.33;;
64932;SDS011;51446;53.850;10.662;2023-12-20T12:35:51;10.38;;;2.50;;
64932;SDS011;51446;53.850;10.662;2023-12-20T12:38:19;10.55;;;2.78;;
64932;SDS011;51446;53.850;10.662;2023-12-20T12:40:45;10.97;;;2.80;;
64932;SDS011;51446;53.850;10.662;2023-12-20T12:43:11;6.75;;;2.30;;
64932;SDS011;51446;53.850;10.662;2023-12-20T12:45:37;8.35;;;2.90;;
64932;SDS011;51446;53.850;10.662;2023-12-20T12:48:02;10.73;;;2.70;;
64932;SDS011;51446;53.850;10.662;2023-12-20T12:50:27;10.10;;;2.33;;
64932;SDS011;51446;53.850;10.662;2023-12-20T12:52:53;12.02;;;2.33;;
64932;SDS011;51446;53.850;10.662;2023-12-20T12:55:18;12.47;;;2.60;;
64932;SDS011;51446;53.850;10.662;2023-12-20T12:57:44;14.27;;;2.73;;
64932;SDS011;51446;53.850;10.662;2023-12-20T13:00:09;15.33;;;2.70;;
64932;SDS011;51446;53.850;10.662;2023-12-20T13:02:36;14.65;;;2.97;;
64932;SDS011;51446;53.850;10.662;2023-12-20T13:05:02;12.33;;;2.70;;
64932;SDS011;51446;53.850;10.662;2023-12-20T13:07:29;13.15;;;3.03;;
64932;SDS011;51446;53.850;10.662;2023-12-20T13:09:55;11.63;;;3.03;;
64932;SDS011;51446;53.850;10.662;2023-12-20T13:12:20;19.35;;;3.47;;
64932;SDS011;51446;53.850;10.662;2023-12-20T13:14:46;15.37;;;2.73;;
64932;SDS011;51446;53.850;10.662;2023-12-20T13:17:12;17.95;;;3.22;;
64932;SDS011;51446;53.850;10.662;2023-12-20T13:19:37;13.30;;;3.43;;
64932;SDS011;51446;53.850;10.662;2023-12-20T13:22:02;19.50;;;3.27;;
64932;SDS011;51446;53.850;10.662;2023-12-20T13:24:28;15.75;;;3.95;;
64932;SDS011;51446;53.850;10.662;2023-12-20T13:26:54;18.60;;;3.27;;
64932;SDS011;51446;53.850;10.662;2023-12-20T13:29:19;16.30;;;3.60;;
64932;SDS011;51446;53.850;10.662;2023-12-20T13:31:45;17.00;;;3.10;;
64932;SDS011;51446;53.850;10.662;2023-12-20T13:34:10;13.80;;;3.22;;
64932;SDS011;51446;53.850;10.662;2023-12-20T13:36:35;21.45;;;3.60;;
64932;SDS011;51446;53.850;10.662;2023-12-20T13:39:01;20.33;;;3.57;;
64932;SDS011;51446;53.850;10.662;2023-12-20T13:41:28;15.85;;;3.83;;
64932;SDS011;51446;53.850;10.662;2023-12-20T13:43:53;26.77;;;4.20;;
64932;SDS011;51446;53.850;10.662;2023-12-20T13:46:19;14.38;;;3.70;;
64932;SDS011;51446;53.850;10.662;2023-12-20T13:48:44;22.67;;;4.57;;
64932;SDS011;51446;53.850;10.662;2023-12-20T13:51:09;18.17;;;4.50;;
64932;SDS011;51446;53.850;10.662;2023-12-20T13:53:35;15.40;;;3.50;;
64932;SDS011;51446;53.850;10.662;2023-12-20T13:56:00;17.03;;;3.90;;
64932;SDS011;51446;53.850;10.662;2023-12-20T13:58:26;20.98;;;4.00;;
64932;SDS011;51446;53.850;10.662;2023-12-20T14:00:51;13.88;;;3.53;;
64932;SDS011;51446;53.850;10.662;2023-12-20T14:03:16;16.67;;;4.05;;
64932;SDS011;51446;53.850;10.662;2023-12-20T14:05:42;24.87;;;4.40;;
64932;SDS011;51446;53.850;10.662;2023-12-20T14:08:07;18.90;;;4.17;;
64932;SDS011;51446;53.850;10.662;2023-12-20T14:10:33;18.53;;;4.00;;
64932;SDS011;51446;53.850;10.662;2023-12-20T14:12:58;17.50;;;3.83;;
64932;SDS011;51446;53.850;10.662;2023-12-20T14:15:23;15.70;;;4.00;;
64932;SDS011;51446;53.850;10.662;2023-12-20T14:17:50;16.52;;;3.95;;
64932;SDS011;51446;53.850;10.662;2023-12-20T14:20:15;23.03;;;4.13;;
64932;SDS011;51446;53.850;10.662;2023-12-20T14:22:41;18.17;;;4.45;;